Time;durP1;ratioP1;P1;durP2;ratioP2;P2;SDS_P1;SDS_P2;PMS_P1;PMS_P2;Temp;Humidity;BMP_temperature;BMP_pressure;BME280_temperature;BME280_humidity;BME280_pressure;Samples;Min_cycle;Max_cycle;Signal;HPM_P1;HPM_P2
2023/12/26 00:09:29;;;;;;;3.55;2.40;;;;;;;18.48;74.15;99852.38;20804045;28;20048;-67
2023/12/26 00:19:30;;;;;;;2.70;1.83;;;;;;;18.48;73.68;99833.50;20850077;28;20124;-67
2023/12/26 00:29:34;;;;;;;2.60;1.40;;;;;;;18.45;73.66;99832.00;20851509;28;20501;-67
2023/12/26 00:39:36;;;;;;;3.03;1.30;;;;;;;18.45;73.02;99834.69;20844365;28;20636;-67
2023/12/26 00:49:38;;;;;;;2.53;1.40;;;;;;;18.44;73.14;99830.31;20834841;28;20060;-66
2023/12/26 00:59:40;;;;;;;1.65;1.15;;;;;;;18.43;72.82;99843.94;20829619;28;20461;-66
2023/12/26 01:09:42;;;;;;;1.80;1.00;;;;;;;18.40;72.48;99851.34;20803324;28;20049;-67
2023/12/26 01:19:45;;;;;;;1.63;1.00;;;;;;;18.38;72.43;99845.28;20817682;28;20064;-67
2023/12/26 01:29:48;;;;;;;1.83;1.08;;;;;;;18.37;72.11;99854.38;20804119;28;20165;-67
2023/12/26 01:39:50;;;;;;;1.17;0.80;;;;;;;18.35;72.03;99877.13;20807964;28;20061;-67
2023/12/26 01:49:54;;;;;;;1.67;0.80;;;;;;;18.36;71.61;99882.34;20812985;28;20049;-67
2023/12/26 01:59:57;;;;;;;1.00;0.60;;;;;;;18.34;71.47;99900.50;20811831;28;20489;-67
2023/12/26 02:10:03;;;;;;;1.50;0.63;;;;;;;18.33;71.36;99922.22;20820395;28;20060;-66
2023/12/26 02:20:07;;;;;;;0.98;0.55;;;;;;;18.28;71.25;99922.72;20841233;28;20295;-67
2023/12/26 02:30:10;;;;;;;2.20;0.80;;;;;;;18.28;70.91;99936.19;20827175;28;20049;-66
2023/12/26 02:40:12;;;;;;;0.90;0.60;;;;;;;18.25;70.54;99948.13;20793972;28;20135;-67
2023/12/26 02:50:13;;;;;;;0.90;0.60;;;;;;;18.22;70.63;99961.91;20834827;28;20056;-66
2023/12/26 03:00:16;;;;;;;1.58;0.60;;;;;;;18.19;70.49;99972.19;20823949;28;20399;-66
2023/12/26 03:10:17;;;;;;;0.93;0.55;;;;;;;18.15;70.32;99963.56;20811211;28;20057;-66
2023/12/26 03:20:19;;;;;;;0.95;0.60;;;;;;;18.11;70.41;99975.69;20831294;28;20056;-67
2023/12/26 03:30:21;;;;;;;1.63;0.70;;;;;;;18.06;70.08;99989.63;20830006;28;20056;-66
2023/12/26 03:40:23;;;;;;;1.90;0.50;;;;;;;18.02;69.83;100030.50;20826303;28;20667;-66
2023/12/26 03:50:25;;;;;;;1.90;0.70;;;;;;;17.86;69.28;99997.03;20814856;28;20049;-67
2023/12/26 04:00:30;;;;;;;2.42;0.60;;;;;;;17.93;68.65;100029.56;20839666;28;20053;-66
2023/12/26 04:10:32;;;;;;;1.73;0.57;;;;;;;17.88;68.31;100061.50;20840396;28;20124;-66
2023/12/26 04:20:34;;;;;;;2.60;0.70;;;;;;;17.81;67.99;100072.06;20824800;28;20172;-66
2023/12/26 04:30:36;;;;;;;1.85;0.50;;;;;;;17.78;67.67;100084.00;20831209;28;20045;-66
2023/12/26 04:40:38;;;;;;;1.98;0.63;;;;;;;17.72;67.26;100116.06;20824096;28;20143;-66
2023/12/26 04:50:40;;;;;;;1.45;0.70;;;;;;;17.69;67.23;100128.00;20786744;28;20049;-67
2023/12/26 05:00:43;;;;;;;3.17;0.80;;;;;;;17.64;66.77;100132.97;20812156;28;20056;-66
2023/12/26 05:10:46;;;;;;;2.33;0.80;;;;;;;17.60;66.65;100153.97;20794922;28;20047;-66
2023/12/26 05:20:48;;;;;;;2.30;0.70;;;;;;;17.57;66.69;100161.50;20809446;28;20077;-66
2023/12/26 05:30:50;;;;;;;2.75;1.00;;;;;;;17.54;66.37;100168.06;20820578;28;20057;-66
2023/12/26 05:40:52;;;;;;;1.40;0.57;;;;;;;17.48;66.00;100174.88;20825694;28;20115;-66
2023/12/26 05:50:54;;;;;;;1.90;0.80;;;;;;;17.50;66.02;100199.78;20834071;28;20207;-66
2023/12/26 06:00:56;;;;;;;1.42;0.60;;;;;;;17.47;66.13;100216.25;20852929;28;20135;-67
2023/12/26 06:10:58;;;;;;;2.03;0.90;;;;;;;17.46;65.88;100219.94;20829197;28;20049;-66
2023/12/26 06:21:00;;;;;;;2.03;0.68;;;;;;;17.46;65.71;100244.16;20832174;28;20555;-67
2023/12/26 06:31:02;;;;;;;2.80;0.70;;;;;;;17.45;65.74;100265.81;20824502;28;20048;-66
2023/12/26 06:41:04;;;;;;;1.10;0.63;;;;;;;17.44;65.38;100281.13;20813803;28;20054;-66
2023/12/26 06:51:06;;;;;;;1.85;0.57;;;;;;;17.45;65.52;100292.72;20834428;28;20151;-67
2023/12/26 07:01:10;;;;;;;0.95;0.50;;;;;;;17.43;65.32;100324.31;20788676;28;20056;-66
2023/12/26 07:11:12;;;;;;;1.08;0.60;;;;;;;17.44;64.99;100339.47;20807328;28;20060;-66
2023/12/26 07:21:17;;;;;;;2.15;0.70;;;;;;;17.43;64.72;100351.22;20827728;28;20561;-66
2023/12/26 07:31:19;;;;;;;;;;;;;;;17.43;64.72;100376.31;20841683;28;20557;-66
2023/12/26 07:41:22;;;;;;;1.83;0.80;;;;;;;17.39;64.62;100380.28;20852456;28;19925;-67
2023/12/26 07:51:24;;;;;;;2.00;0.70;;;;;;;17.40;64.29;100398.13;20823126;28;20045;-66
2023/12/26 08:01:26;;;;;;;2.63;0.80;;;;;;;17.42;64.05;100416.78;20831994;28;20405;-66
2023/12/26 08:11:28;;;;;;;1.85;0.60;;;;;;;17.39;63.85;100445.69;20838800;28;20054;-67
2023/12/26 08:21:30;;;;;;;1.80;0.85;;;;;;;17.39;63.53;100466.38;20838103;28;20063;-66
2023/12/26 08:31:32;;;;;;;3.05;0.80;;;;;;;17.39;63.38;100477.16;20832611;28;20049;-67
2023/12/26 08:41:34;;;;;;;3.35;0.90;;;;;;;17.40;63.14;100492.31;20832871;28;20065;-66
2023/12/26 08:51:39;;;;;;;2.55;0.90;;;;;;;17.40;62.97;100511.97;20832917;28;20477;-67
2023/12/26 09:01:41;;;;;;;;;;;;;;;17.45;62.61;100527.69;20830304;28;20251;-66
2023/12/26 09:11:43;;;;;;;2.53;0.70;;;;;;;17.45;62.56;100546.53;20831957;28;19929;-66
2023/12/26 09:21:45;;;;;;;2.25;1.00;;;;;;;17.50;62.35;100571.19;20836153;28;20489;-66
2023/12/26 09:31:47;;;;;;;3.22;0.82;;;;;;;17.49;62.50;100596.41;20808951;28;20056;-65
2023/12/26 09:41:54;;;;;;;2.92;0.95;;;;;;;17.71;62.53;100625.88;20811259;28;20053;-66
2023/12/26 09:52:00;;;;;;;2.35;0.95;;;;;;;17.97;61.84;100647.69;20815718;28;20077;-66
2023/12/26 10:02:03;;;;;;;3.40;1.08;;;;;;;18.22;61.34;100650.81;20790748;28;20128;-66
2023/12/26 10:12:05;;;;;;;2.85;0.90;;;;;;;18.39;60.72;100658.13;20796798;28;20489;-65
2023/12/26 10:22:11;;;;;;;4.13;1.00;;;;;;;18.51;59.99;100675.00;20821826;28;20056;-66
2023/12/26 10:32:13;;;;;;;2.55;0.93;;;;;;;18.58;59.23;100690.59;20810815;28;20048;-66
2023/12/26 10:42:18;;;;;;;1.85;0.90;;;;;;;18.68;58.84;100692.28;20818171;28;20053;-65
2023/12/26 10:52:20;;;;;;;3.38;1.13;;;;;;;18.66;58.56;100702.34;20811954;28;20413;-65
2023/12/26 13:51:36;;;;;;;;;;;;;;;18.51;56.89;100947.28;20797768;28;20053;-67
2023/12/26 14:02:16;;;;;;;2.47;1.00;;;;;;;18.51;56.86;100963.44;20822829;28;19932;-66
2023/12/26 14:12:55;;;;;;;2.88;0.88;;;;;;;18.52;57.69;101008.28;20805147;28;20122;-67
2023/12/26 14:23:34;;;;;;;2.88;1.00;;;;;;;18.57;57.99;101026.75;20817833;28;20055;-67
2023/12/26 14:34:15;;;;;;;4.15;1.05;;;;;;;18.61;58.36;101041.66;20815298;28;20056;-67
2023/12/26 14:44:55;;;;;;;1.42;0.68;;;;;;;18.62;58.37;101070.34;20826424;28;20048;-66
2023/12/26 14:55:35;;;;;;;2.22;0.68;;;;;;;18.65;58.29;101088.06;20812628;28;20045;-69
2023/12/26 15:05:36;;;;;;;2.22;0.70;;;;;;;18.59;58.22;101118.28;20809191;28;20049;-67
2023/12/26 15:15:38;;;;;;;2.10;0.47;;;;;;;18.58;58.55;101138.16;20831916;28;20484;-68
2023/12/26 15:25:40;;;;;;;3.20;0.73;;;;;;;18.51;58.51;101148.59;20812955;28;20145;-68
2023/12/26 15:35:42;;;;;;;2.35;0.70;;;;;;;18.50;59.07;101182.81;20821858;28;20049;-67
2023/12/26 15:45:47;;;;;;;1.27;0.50;;;;;;;18.62;59.42;101207.00;20819083;28;20057;-67
2023/12/26 15:55:49;;;;;;;2.00;0.50;;;;;;;18.58;58.91;101211.81;20809413;28;20150;-66
2023/12/26 16:05:50;;;;;;;1.25;0.50;;;;;;;18.25;60.60;101227.19;20811471;28;20057;-65
2023/12/26 16:15:52;;;;;;;1.08;0.52;;;;;;;17.96;61.50;101233.16;20789826;28;20092;-64
2023/12/26 16:25:54;;;;;;;3.00;0.63;;;;;;;17.83;61.60;101244.09;20770256;28;20077;-66
2023/12/26 16:35:56;;;;;;;2.15;0.60;;;;;;;17.71;62.37;101280.13;20791725;28;20603;-65
2023/12/26 16:45:58;;;;;;;1.83;0.85;;;;;;;17.62;62.02;101316.75;20789722;28;20049;-65
2023/12/26 16:56:00;;;;;;;2.05;0.50;;;;;;;17.48;61.93;101334.03;20771331;28;20677;-64
2023/12/26 17:06:02;;;;;;;1.50;0.55;;;;;;;17.33;62.15;101355.78;20795313;28;20203;-64
2023/12/26 17:16:14;;;;;;;2.33;0.50;;;;;;;17.27;61.94;101377.81;20776545;28;20054;-65
2023/12/26 17:26:15;;;;;;;1.85;0.70;;;;;;;17.27;61.79;101377.81;20789233;28;20053;-65
2023/12/26 17:36:17;;;;;;;2.67;0.70;;;;;;;17.21;61.60;101384.50;20775392;28;20068;-65
2023/12/26 17:46:19;;;;;;;2.75;0.70;;;;;;;17.15;61.31;101406.50;20770431;28;20083;-65
2023/12/26 17:56:21;;;;;;;2.85;0.88;;;;;;;17.14;61.34;101437.09;20821159;28;20049;-65
2023/12/26 18:06:29;;;;;;;2.70;0.95;;;;;;;17.07;61.21;101446.59;20807384;28;20042;-65
2023/12/26 18:16:31;;;;;;;1.73;0.82;;;;;;;17.03;61.13;101462.16;20857560;28;20051;-65
2023/12/26 18:26:34;;;;;;;4.07;0.88;;;;;;;16.96;61.02;101469.78;20864925;28;20087;-65
2023/12/26 18:36:36;;;;;;;1.60;0.70;;;;;;;17.00;60.98;101483.88;20816080;28;20049;-64
2023/12/26 18:46:38;;;;;;;1.73;0.68;;;;;;;17.02;60.69;101502.59;20812001;28;20053;-65
2023/12/26 18:56:45;;;;;;;3.63;1.25;;;;;;;16.96;60.43;101515.50;20834644;28;20045;-65
2023/12/26 19:06:46;;;;;;;2.30;0.70;;;;;;;16.86;60.29;101519.88;20826653;28;20524;-65
2023/12/26 19:16:48;;;;;;;2.25;0.75;;;;;;;16.84;60.30;101537.94;20826834;28;20073;-66
2023/12/26 19:26:55;;;;;;;1.55;0.65;;;;;;;16.82;60.13;101535.34;20854231;28;20053;-65
2023/12/26 19:36:57;;;;;;;2.63;0.82;;;;;;;16.78;60.12;101554.50;20833269;28;20082;-66
2023/12/26 19:46:59;;;;;;;2.08;0.70;;;;;;;16.65;59.75;101576.06;20840418;28;20060;-66
2023/12/26 19:57:00;;;;;;;2.10;0.75;;;;;;;16.56;59.74;101582.97;20848426;28;20045;-66
2023/12/26 20:07:03;;;;;;;1.77;0.63;;;;;;;16.47;59.78;101589.84;20822895;28;20041;-66
2023/12/26 20:17:05;;;;;;;2.95;0.95;;;;;;;16.43;59.43;101600.97;20807117;28;20183;-66
2023/12/26 20:27:07;;;;;;;2.30;0.70;;;;;;;16.35;59.33;101602.38;20828992;28;20050;-66
2023/12/26 20:37:09;;;;;;;2.33;1.00;;;;;;;16.28;59.52;101619.88;20841395;28;20394;-65
2023/12/26 20:47:11;;;;;;;2.90;0.85;;;;;;;16.28;59.76;101627.06;20823376;28;20410;-65
2023/12/26 20:57:12;;;;;;;2.95;1.20;;;;;;;16.18;59.79;101643.84;20820536;28;20076;-65
2023/12/26 21:07:14;;;;;;;2.17;0.77;;;;;;;16.07;59.39;101633.84;20774273;28;20049;-66
2023/12/26 21:17:16;;;;;;;2.80;1.02;;;;;;;16.06;59.49;101653.59;20832269;28;20091;-66
2023/12/26 21:27:18;;;;;;;3.80;0.80;;;;;;;16.04;59.46;101663.59;20811840;28;20162;-65
2023/12/26 21:37:19;;;;;;;3.03;0.95;;;;;;;15.99;59.24;101673.81;20829624;28;20053;-66
2023/12/26 21:47:23;;;;;;;2.17;0.80;;;;;;;16.00;58.73;101693.44;20829717;28;20056;-66
2023/12/26 21:57:25;;;;;;;1.33;0.65;;;;;;;15.90;58.24;101703.94;20842252;28;20528;-65
2023/12/26 22:07:27;;;;;;;2.42;0.82;;;;;;;15.81;58.17;101708.94;20834433;28;20052;-66
2023/12/26 22:17:29;;;;;;;1.98;0.82;;;;;;;15.77;57.60;101701.22;20845504;28;20049;-66
2023/12/26 22:27:31;;;;;;;1.92;0.80;;;;;;;15.66;57.64;101716.19;20810850;28;20187;-66
2023/12/26 22:37:33;;;;;;;2.53;0.95;;;;;;;15.69;57.21;101723.19;20835574;28;20430;-66
2023/12/26 22:47:35;;;;;;;3.15;1.20;;;;;;;15.50;57.29;101719.06;20819137;28;21425;-66
2023/12/26 22:57:38;;;;;;;3.60;0.90;;;;;;;15.56;56.99;101751.81;20834225;28;20096;-66
2023/12/26 23:07:40;;;;;;;2.55;0.77;;;;;;;15.54;56.33;101751.06;20836079;28;20068;-66
2023/12/26 23:17:42;;;;;;;2.65;0.75;;;;;;;15.52;56.24;101770.78;20812762;28;20055;-66
2023/12/26 23:27:44;;;;;;;2.45;0.88;;;;;;;15.55;55.61;101768.88;20819418;28;20057;-66
2023/12/26 23:37:46;;;;;;;2.92;1.10;;;;;;;15.52;55.58;101767.25;20834544;28;20049;-66
2023/12/26 23:47:48;;;;;;;2.20;0.80;;;;;;;15.47;55.51;101764.00;20815958;28;20050;-66
2023/12/26 23:57:52;;;;;;;1.92;0.80;;;;;;;15.50;54.83;101778.09;20845402;28;20060;-66
